Terminal Aerodrome Forecast
Issued by NWS Lubbock, TX

Home | Current Version | Previous Version | Text Only | Print | Product List | Glossary On
Versions: 1 2 3 4 5 6 7 8 9 10 11 12 13 14 15 16 17 18 19 20
718
FTUS44 KLUB 240000 CCA
TAFLBB
TAF COR
KLBB 240000Z 2400/2424 17030G40KT 6SM BLDU FEW050 SCT150 SCT250
      TEMPO 2401/2403 VRB25G45KT 3SM TSRA BKN050CB
     FM240400 23020G30KT P6SM FEW150
     FM241500 26027G37KT 6SM BLDU SCT200
     FM241800 31032G45KT 3SM BLDU SCT060 BKN200=

USA.gov is the U.S. government's official web portal to all federal, state and local government web resources and services.